createdAt,value
2023-03-05T00:02:07.120Z,5.00
2023-03-05T00:04:54.031Z,5.00
2023-03-05T00:07:40.578Z,5.00
2023-03-05T00:10:26.964Z,5.10
2023-03-05T00:13:13.791Z,5.00
2023-03-05T00:16:04.312Z,5.00
2023-03-05T00:18:51.301Z,5.00
2023-03-05T00:21:39.653Z,5.00
2023-03-05T00:24:26.237Z,5.10
2023-03-05T00:27:12.638Z,5.10
2023-03-05T00:29:59.224Z,5.00
2023-03-05T00:32:46.831Z,5.10
2023-03-05T00:35:35.135Z,5.10
2023-03-05T00:38:21.732Z,5.10
2023-03-05T00:41:09.444Z,5.10
2023-03-05T00:43:56.082Z,5.10
2023-03-05T00:46:42.564Z,5.20
2023-03-05T00:49:30.911Z,5.20
2023-03-05T00:52:17.171Z,5.30
2023-03-05T00:55:03.510Z,5.30
2023-03-05T00:57:50.138Z,5.30
2023-03-05T01:00:36.560Z,5.30
2023-03-05T01:03:23.451Z,5.30
2023-03-05T01:06:15.078Z,5.30
2023-03-05T01:09:01.839Z,5.30
2023-03-05T01:11:48.788Z,5.30
2023-03-05T01:14:35.909Z,5.10
2023-03-05T01:17:23.231Z,5.10
2023-03-05T01:20:13.472Z,5.10
2023-03-05T01:23:01.881Z,5.10
2023-03-05T01:25:54.510Z,5.00
2023-03-05T01:28:41.134Z,5.00
2023-03-05T01:31:27.704Z,5.00
2023-03-05T01:34:14.722Z,5.10
2023-03-05T01:37:01.173Z,5.20
2023-03-05T01:39:49.257Z,5.10
2023-03-05T01:42:35.809Z,5.10
2023-03-05T01:45:22.345Z,4.80
2023-03-05T01:48:09.149Z,4.80
2023-03-05T01:50:56.314Z,4.70
2023-03-05T01:53:42.744Z,4.70
2023-03-05T01:56:31.693Z,4.80
2023-03-05T01:59:19.980Z,4.90
2023-03-05T02:02:08.065Z,5.10
2023-03-05T02:04:58.357Z,5.20
2023-03-05T02:07:45.466Z,5.20
2023-03-05T02:10:34.966Z,5.10
2023-03-05T02:13:24.757Z,4.90
2023-03-05T02:16:11.315Z,4.80
2023-03-05T02:18:58.284Z,4.90
2023-03-05T02:21:48.849Z,5.00
2023-03-05T02:24:38.167Z,5.10
2023-03-05T02:27:34.915Z,5.00
2023-03-05T02:30:22.124Z,5.10
2023-03-05T02:33:09.633Z,5.20
2023-03-05T02:35:56.402Z,5.10
2023-03-05T02:38:44.810Z,5.10
2023-03-05T02:41:31.338Z,5.10
2023-03-05T02:44:18.771Z,5.10
2023-03-05T02:47:05.328Z,5.10
2023-03-05T02:49:53.659Z,5.20
2023-03-05T02:52:40.526Z,5.20
2023-03-05T02:55:33.734Z,5.30
2023-03-05T02:58:20.547Z,5.40
2023-03-05T03:01:07.515Z,5.30
2023-03-05T03:03:54.587Z,5.20
2023-03-05T03:06:41.262Z,5.20
2023-03-05T03:09:27.772Z,5.20
2023-03-05T03:12:16.097Z,5.10
2023-03-05T03:15:02.987Z,5.20
2023-03-05T03:17:49.421Z,5.10
2023-03-05T03:20:39.202Z,5.20
2023-03-05T03:23:26.515Z,5.20
2023-03-05T03:26:13.033Z,5.20
2023-03-05T03:29:01.232Z,5.10
2023-03-05T03:31:48.207Z,5.20
2023-03-05T03:34:34.586Z,5.10
2023-03-05T03:37:21.189Z,5.10
2023-03-05T03:40:09.695Z,5.00
2023-03-05T03:42:56.336Z,5.10
2023-03-05T03:45:45.262Z,5.10
2023-03-05T03:48:31.495Z,5.10
2023-03-05T03:51:18.141Z,5.10
2023-03-05T03:54:05.144Z,5.20
2023-03-05T03:56:52.576Z,5.00
2023-03-05T03:59:39.626Z,5.20
2023-03-05T04:02:28.104Z,5.10
2023-03-05T04:05:14.699Z,5.10
2023-03-05T04:08:01.442Z,4.90
2023-03-05T04:10:48.180Z,4.60
2023-03-05T04:13:34.782Z,4.50
2023-03-05T04:16:21.645Z,4.70
2023-03-05T04:19:09.617Z,4.70
2023-03-05T04:21:56.270Z,4.80
2023-03-05T04:24:43.108Z,4.90
2023-03-05T04:27:29.642Z,5.00
2023-03-05T04:30:16.780Z,5.10
2023-03-05T04:33:03.362Z,5.10
2023-03-05T04:35:51.523Z,5.00
2023-03-05T04:38:38.223Z,5.00
2023-03-05T04:41:24.746Z,5.00
2023-03-05T04:44:11.633Z,5.10
2023-03-05T04:46:58.252Z,5.10
2023-03-05T04:49:45.372Z,5.10
2023-03-05T04:52:33.519Z,5.20
2023-03-05T04:55:20.386Z,5.20
2023-03-05T04:58:07.088Z,5.10
2023-03-05T05:00:53.461Z,5.20
2023-03-05T05:03:39.980Z,5.10
2023-03-05T05:06:26.315Z,5.10
2023-03-05T05:09:14.083Z,5.10
2023-03-05T05:12:00.471Z,5.10
2023-03-05T05:14:47.090Z,5.20
2023-03-05T05:17:34.313Z,5.20
2023-03-05T05:20:21.010Z,5.20
2023-03-05T05:23:07.367Z,5.10
2023-03-05T05:25:59.626Z,4.90
2023-03-05T05:28:46.347Z,4.80
2023-03-05T05:31:33.193Z,4.80
2023-03-05T05:34:19.867Z,4.60
2023-03-05T05:37:06.394Z,4.30
2023-03-05T05:39:52.922Z,4.40
2023-03-05T05:42:40.598Z,4.30
2023-03-05T05:45:27.017Z,4.30
2023-03-05T05:48:13.698Z,4.40
2023-03-05T05:51:00.625Z,4.40
2023-03-05T05:53:47.226Z,4.30
2023-03-05T05:56:34.135Z,4.20
2023-03-05T05:59:22.002Z,4.30
2023-03-05T06:02:08.967Z,4.40
2023-03-05T06:04:58.085Z,4.40
2023-03-05T06:07:44.743Z,4.30
2023-03-05T06:10:30.994Z,4.50
2023-03-05T06:13:17.538Z,4.50
2023-03-05T06:16:08.824Z,4.50
2023-03-05T06:18:55.847Z,4.40
2023-03-05T06:21:43.082Z,4.30
2023-03-05T06:24:29.539Z,4.30
2023-03-05T06:27:16.064Z,4.10
2023-03-05T06:30:02.789Z,4.10
2023-03-05T06:32:50.858Z,4.00
2023-03-05T06:35:39.298Z,3.90
2023-03-05T06:38:26.255Z,4.00
2023-03-05T06:41:14.239Z,3.90
2023-03-05T06:44:03.197Z,3.90
2023-03-05T06:46:49.814Z,4.00
2023-03-05T06:49:37.795Z,4.00
2023-03-05T06:52:24.284Z,4.00
2023-03-05T06:55:11.144Z,4.00
2023-03-05T06:57:57.956Z,4.10
2023-03-05T07:00:45.249Z,4.30
2023-03-05T07:03:31.648Z,4.40
2023-03-05T07:06:20.307Z,4.40
2023-03-05T07:09:08.217Z,4.50
2023-03-05T07:11:55.107Z,4.60
2023-03-05T07:14:41.432Z,4.70
2023-03-05T07:17:28.363Z,4.80
2023-03-05T07:20:14.877Z,4.80
2023-03-05T07:23:03.063Z,5.00
2023-03-05T07:25:49.802Z,5.00
2023-03-05T07:28:36.300Z,5.20
2023-03-05T07:31:27.249Z,5.20
2023-03-05T07:34:13.944Z,5.20
2023-03-05T07:37:00.484Z,5.10
2023-03-05T07:39:48.470Z,5.10
2023-03-05T07:42:35.651Z,5.20
2023-03-05T07:45:33.149Z,5.40
2023-03-05T07:48:21.361Z,5.30
2023-03-05T07:51:09.630Z,5.30
2023-03-05T07:53:58.685Z,5.40
2023-03-05T07:56:46.622Z,5.40
2023-03-05T07:59:33.591Z,5.50
2023-03-05T08:02:21.623Z,5.50
2023-03-05T08:05:09.084Z,5.50
2023-03-05T08:07:55.784Z,5.50
2023-03-05T08:10:42.309Z,5.60
2023-03-05T08:13:30.301Z,5.60
2023-03-05T08:16:19.411Z,5.60
2023-03-05T08:19:06.027Z,5.70
2023-03-05T08:21:54.540Z,5.80
2023-03-05T08:24:42.525Z,5.70
2023-03-05T08:27:29.455Z,5.80
2023-03-05T08:30:19.485Z,5.80
2023-03-05T08:33:05.921Z,5.90
2023-03-05T08:35:52.582Z,5.90
2023-03-05T08:38:38.978Z,5.90
2023-03-05T08:41:25.302Z,5.90
2023-03-05T08:44:12.547Z,5.80
2023-03-05T08:47:00.399Z,5.90
2023-03-05T08:49:47.351Z,5.90
2023-03-05T08:52:33.901Z,5.80
2023-03-05T08:55:20.411Z,5.80
2023-03-05T08:58:07.106Z,5.90
2023-03-05T09:00:53.784Z,5.90
2023-03-05T09:03:41.630Z,6.00
2023-03-05T09:06:29.366Z,6.10
2023-03-05T09:09:16.107Z,6.30
2023-03-05T09:12:03.045Z,6.30
2023-03-05T09:14:49.841Z,6.20
2023-03-05T09:17:37.475Z,6.10
2023-03-05T09:20:25.299Z,6.00
2023-03-05T09:23:11.605Z,5.90
2023-03-05T09:25:58.027Z,6.00
2023-03-05T09:28:44.436Z,6.00
2023-03-05T09:31:30.949Z,6.00
2023-03-05T09:34:18.014Z,6.20
2023-03-05T09:37:06.764Z,6.40
2023-03-05T09:39:53.383Z,6.50
2023-03-05T09:42:53.467Z,6.50
2023-03-05T09:45:47.999Z,6.60
2023-03-05T09:48:50.467Z,6.70
2023-03-05T09:51:41.426Z,6.70
2023-03-05T09:54:36.786Z,6.70
2023-03-05T09:57:26.841Z,6.80
2023-03-05T10:00:29.491Z,6.80
2023-03-05T10:03:20.789Z,6.70
2023-03-05T10:06:17.707Z,6.60
2023-03-05T10:09:08.512Z,6.60
2023-03-05T10:11:58.586Z,6.60
2023-03-05T10:14:45.089Z,6.70
2023-03-05T10:17:48.174Z,6.80
2023-03-05T10:20:52.213Z,6.80
2023-03-05T10:23:46.238Z,6.80
2023-03-05T10:26:59.816Z,6.80
2023-03-05T10:29:57.056Z,6.90
2023-03-05T10:32:53.579Z,6.90
2023-03-05T10:36:14.062Z,7.00
2023-03-05T10:39:35.346Z,7.00
2023-03-05T10:42:31.979Z,6.90
2023-03-05T10:45:21.018Z,6.80
2023-03-05T10:48:16.460Z,6.80
2023-03-05T10:51:11.321Z,6.90
2023-03-05T10:54:00.094Z,7.00
2023-03-05T10:56:46.460Z,6.90
2023-03-05T10:59:34.483Z,6.90
2023-03-05T11:02:22.728Z,6.80
2023-03-05T11:05:42.010Z,6.80
2023-03-05T11:08:31.907Z,6.80
2023-03-05T11:11:19.925Z,6.70
2023-03-05T11:14:08.644Z,6.70
2023-03-05T11:16:56.850Z,6.70
2023-03-05T11:19:43.546Z,6.70
2023-03-05T11:22:35.450Z,6.70
2023-03-05T11:25:22.673Z,6.80
2023-03-05T11:28:32.055Z,6.80
2023-03-05T11:31:24.401Z,6.70
2023-03-05T11:34:25.829Z,6.60
2023-03-05T11:37:24.183Z,6.60
2023-03-05T11:40:21.606Z,6.60
2023-03-05T11:43:14.575Z,6.60
2023-03-05T11:46:06.227Z,6.60
2023-03-05T11:48:55.410Z,6.60
2023-03-05T11:51:49.538Z,6.70
2023-03-05T11:54:43.786Z,6.80
2023-03-05T11:57:39.752Z,6.80
2023-03-05T12:00:30.943Z,6.80
2023-03-05T12:03:19.901Z,6.80
2023-03-05T12:06:16.227Z,6.70
2023-03-05T12:09:10.757Z,6.70
2023-03-05T12:12:03.361Z,6.70
2023-03-05T12:14:57.012Z,6.70
2023-03-05T12:17:46.240Z,6.60
2023-03-05T12:20:43.182Z,6.60
2023-03-05T12:23:39.538Z,6.60
2023-03-05T12:26:57.835Z,6.60
2023-03-05T12:29:54.375Z,6.80
2023-03-05T12:32:59.690Z,6.70
2023-03-05T12:35:48.035Z,6.70
2023-03-05T12:38:36.333Z,6.80
2023-03-05T12:41:44.399Z,6.70
2023-03-05T12:44:32.321Z,6.70
2023-03-05T12:47:23.533Z,6.70
2023-03-05T12:50:52.768Z,6.60
2023-03-05T12:53:39.706Z,6.60
2023-03-05T12:56:32.658Z,6.70
2023-03-05T12:59:22.857Z,6.70
2023-03-05T13:02:21.727Z,6.70
2023-03-05T13:05:19.088Z,6.70
2023-03-05T13:08:20.269Z,6.70
2023-03-05T13:11:10.349Z,6.70
2023-03-05T13:13:57.896Z,6.60
2023-03-05T13:16:44.617Z,6.60
2023-03-05T13:19:35.419Z,6.50
2023-03-05T13:22:24.624Z,6.50
2023-03-05T13:25:20.518Z,6.60
2023-03-05T13:28:13.387Z,6.60
2023-03-05T13:31:02.570Z,6.60
2023-03-05T13:33:54.614Z,6.60
2023-03-05T13:36:41.586Z,6.50
2023-03-05T13:39:31.656Z,6.50
2023-03-05T13:42:23.837Z,6.60
2023-03-05T13:45:24.642Z,6.70
2023-03-05T13:48:20.553Z,6.70
2023-03-05T13:51:09.592Z,6.80
2023-03-05T13:53:56.629Z,6.80
2023-03-05T13:56:51.209Z,6.90
2023-03-05T13:59:39.863Z,6.90
2023-03-05T14:02:27.760Z,6.90
2023-03-05T14:05:16.520Z,6.90
2023-03-05T14:08:03.605Z,6.70
2023-03-05T14:10:51.532Z,6.60
2023-03-05T14:13:38.061Z,6.60
2023-03-05T14:16:32.656Z,6.60
2023-03-05T14:19:37.750Z,6.60
2023-03-05T14:22:32.887Z,6.70
2023-03-05T14:25:33.703Z,6.80
2023-03-05T14:28:28.662Z,6.80
2023-03-05T14:31:18.592Z,6.90
2023-03-05T14:34:08.446Z,6.90
2023-03-05T14:36:57.312Z,6.80
2023-03-05T14:39:50.769Z,6.90
2023-03-05T14:42:39.435Z,6.90
2023-03-05T14:45:28.680Z,6.80
2023-03-05T14:48:17.488Z,6.80
2023-03-05T14:51:05.912Z,6.80
2023-03-05T14:53:52.548Z,6.60
2023-03-05T14:56:39.679Z,6.70
2023-03-05T14:59:26.560Z,6.80
2023-03-05T15:02:17.147Z,6.80
2023-03-05T15:05:03.929Z,6.60
2023-03-05T15:07:53.289Z,6.70
2023-03-05T15:10:39.884Z,6.70
2023-03-05T15:13:26.876Z,6.70
2023-03-05T15:16:18.154Z,6.80
2023-03-05T15:19:04.814Z,6.70
2023-03-05T15:21:51.834Z,6.60
2023-03-05T15:24:40.018Z,6.60
2023-03-05T15:27:26.459Z,6.60
2023-03-05T15:30:23.099Z,6.70
2023-03-05T15:33:11.917Z,6.50
2023-03-05T15:35:58.886Z,6.50
2023-03-05T15:38:47.398Z,6.50
2023-03-05T15:41:35.480Z,6.50
2023-03-05T15:44:21.968Z,6.50
2023-03-05T15:47:08.795Z,6.50
2023-03-05T15:49:55.411Z,6.50
2023-03-05T15:52:41.940Z,6.50
2023-03-05T15:55:28.550Z,6.50
2023-03-05T15:58:17.758Z,6.50
2023-03-05T16:01:04.482Z,6.60
2023-03-05T16:03:51.276Z,6.60
2023-03-05T16:06:38.394Z,6.50
2023-03-05T16:09:25.822Z,6.50
2023-03-05T16:12:17.916Z,6.50
2023-03-05T16:15:07.438Z,6.40
2023-03-05T16:17:56.817Z,6.40
2023-03-05T16:20:43.836Z,6.50
2023-03-05T16:23:30.552Z,6.60
2023-03-05T16:26:17.309Z,6.50
2023-03-05T16:29:03.962Z,6.60
2023-03-05T16:31:51.939Z,6.60
2023-03-05T16:34:38.951Z,6.60
2023-03-05T16:37:26.241Z,6.50
2023-03-05T16:40:13.918Z,6.50
2023-03-05T16:43:00.640Z,6.40
2023-03-05T16:45:47.484Z,6.50
2023-03-05T16:48:35.784Z,6.40
2023-03-05T16:51:23.451Z,6.50
2023-03-05T16:54:10.402Z,6.50
2023-03-05T16:59:49.332Z,6.40
2023-03-05T17:02:35.718Z,6.40
2023-03-05T17:05:28.050Z,6.40
2023-03-05T17:08:14.362Z,6.30
2023-03-05T17:11:00.782Z,6.40
2023-03-05T17:13:48.967Z,6.50
2023-03-05T17:16:35.796Z,6.50
2023-03-05T17:19:22.599Z,6.50
2023-03-05T17:22:12.602Z,6.60
2023-03-05T17:24:59.072Z,6.50
2023-03-05T17:27:46.036Z,6.50
2023-03-05T17:30:33.379Z,6.50
2023-03-05T17:33:20.163Z,6.40
2023-03-05T17:36:13.277Z,6.40
2023-03-05T17:39:01.403Z,6.40
2023-03-05T17:41:47.908Z,6.40
2023-03-05T17:44:34.412Z,6.40
2023-03-05T17:47:22.479Z,6.40
2023-03-05T17:50:12.195Z,6.40
2023-03-05T17:52:59.116Z,6.40
2023-03-05T17:55:47.098Z,6.30
2023-03-05T17:58:33.699Z,6.30
2023-03-05T18:01:25.650Z,6.20
2023-03-05T18:04:12.712Z,6.30
2023-03-05T18:06:59.510Z,6.30
2023-03-05T18:09:45.934Z,6.30
2023-03-05T18:12:34.122Z,6.30
2023-03-05T18:15:23.456Z,6.30
2023-03-05T18:18:10.301Z,6.30
2023-03-05T18:20:56.801Z,6.20
2023-03-05T18:23:43.123Z,6.20
2023-03-05T18:26:29.426Z,6.10
2023-03-05T18:29:18.696Z,6.10
2023-03-05T18:32:05.768Z,6.20
2023-03-05T18:34:52.815Z,6.30
2023-03-05T18:37:39.821Z,6.10
2023-03-05T18:40:28.667Z,5.90
2023-03-05T18:43:17.063Z,5.80
2023-03-05T18:46:08.079Z,5.70
2023-03-05T18:48:54.980Z,5.50
2023-03-05T18:51:42.275Z,5.30
2023-03-05T18:54:28.734Z,5.20
2023-03-05T18:57:15.098Z,5.10
2023-03-05T19:00:01.412Z,5.00
2023-03-05T19:02:49.287Z,4.80
2023-03-05T19:05:36.207Z,4.70
2023-03-05T19:08:22.853Z,4.80
2023-03-05T19:11:16.497Z,4.70
2023-03-05T19:14:02.921Z,4.70
2023-03-05T19:16:49.686Z,4.70
2023-03-05T19:19:37.590Z,4.80
2023-03-05T19:22:25.146Z,5.00
2023-03-05T19:25:12.194Z,5.10
2023-03-05T19:27:58.984Z,5.20
2023-03-05T19:30:45.426Z,5.30
2023-03-05T19:33:31.890Z,5.40
2023-03-05T19:36:19.718Z,5.40
2023-03-05T19:39:07.126Z,5.40
2023-03-05T19:41:53.504Z,5.40
2023-03-05T19:44:40.423Z,5.40
2023-03-05T19:47:27.018Z,5.40
2023-03-05T19:50:16.293Z,5.50
2023-03-05T19:53:04.376Z,5.50
2023-03-05T19:55:51.479Z,5.50
2023-03-05T19:58:39.111Z,5.60
2023-03-05T20:01:27.847Z,5.60
2023-03-05T20:04:16.216Z,5.60
2023-03-05T20:07:03.745Z,5.50
2023-03-05T20:09:53.097Z,5.40
2023-03-05T20:12:40.047Z,5.50
2023-03-05T20:15:29.170Z,5.30
2023-03-05T20:18:16.168Z,5.20
2023-03-05T20:21:03.362Z,5.00
2023-03-05T20:23:50.547Z,5.00
2023-03-05T20:26:40.078Z,5.10
2023-03-05T20:29:26.549Z,5.00
2023-03-05T20:32:14.995Z,5.00
2023-03-05T20:35:01.828Z,4.90
2023-03-05T20:38:00.082Z,5.10
2023-03-05T20:40:46.680Z,5.10
2023-03-05T20:43:36.222Z,5.20
2023-03-05T20:46:25.277Z,5.30
2023-03-05T20:49:13.507Z,5.40
2023-03-05T20:51:59.754Z,5.40
2023-03-05T20:54:47.656Z,5.40
2023-03-05T20:57:34.621Z,5.40
2023-03-05T21:00:22.734Z,5.50
2023-03-05T21:03:10.407Z,5.60
2023-03-05T21:05:57.161Z,5.50
2023-03-05T21:08:44.623Z,5.40
2023-03-05T21:11:31.884Z,5.40
2023-03-05T21:14:18.184Z,5.40
2023-03-05T21:17:06.206Z,5.40
2023-03-05T21:19:53.317Z,5.40
2023-03-05T21:22:39.654Z,5.40
2023-03-05T21:25:27.536Z,5.50
2023-03-05T21:28:17.320Z,5.50
2023-03-05T21:31:08.569Z,5.60
2023-03-05T21:33:56.355Z,5.60
2023-03-05T21:36:42.957Z,5.60
2023-03-05T21:39:29.406Z,5.60
2023-03-05T21:42:15.925Z,5.50
2023-03-05T21:45:02.495Z,5.40
2023-03-05T21:47:51.982Z,5.30
2023-03-05T21:50:41.874Z,5.10
2023-03-05T21:53:28.336Z,5.10
2023-03-05T21:56:23.746Z,4.80
2023-03-05T21:59:10.440Z,4.70
2023-03-05T22:01:57.129Z,4.50
2023-03-05T22:04:43.926Z,4.40
2023-03-05T22:07:31.597Z,4.40
2023-03-05T22:10:19.756Z,4.40
2023-03-05T22:13:13.212Z,4.30
2023-03-05T22:16:00.627Z,4.40
2023-03-05T22:18:47.188Z,4.30
2023-03-05T22:21:33.524Z,4.20
2023-03-05T22:24:21.813Z,4.30
2023-03-05T22:27:09.483Z,4.30
2023-03-05T22:29:56.250Z,4.40
2023-03-05T22:32:42.550Z,4.50
2023-03-05T22:35:29.320Z,4.60
2023-03-05T22:38:16.456Z,4.70
2023-03-05T22:41:08.453Z,4.80
2023-03-05T22:43:55.075Z,4.70
2023-03-05T22:46:41.531Z,4.60
2023-03-05T22:49:27.993Z,4.60
2023-03-05T22:52:14.341Z,4.60
2023-03-05T22:55:03.041Z,4.60
2023-03-05T22:57:51.062Z,4.60
2023-03-05T23:00:37.693Z,4.50
2023-03-05T23:03:24.283Z,4.70
2023-03-05T23:06:11.622Z,4.80
2023-03-05T23:08:58.248Z,4.90
2023-03-05T23:11:44.576Z,4.80
2023-03-05T23:14:32.406Z,4.60
2023-03-05T23:17:18.905Z,4.60
2023-03-05T23:20:10.179Z,4.60
2023-03-05T23:22:57.458Z,4.60
2023-03-05T23:25:43.794Z,4.70
2023-03-05T23:28:30.301Z,4.70
2023-03-05T23:31:19.768Z,4.60
2023-03-05T23:34:06.302Z,4.50
2023-03-05T23:36:53.240Z,4.40
2023-03-05T23:39:39.542Z,4.40
2023-03-05T23:42:26.004Z,4.50
2023-03-05T23:45:14.327Z,4.70
2023-03-05T23:48:03.391Z,4.80
2023-03-05T23:50:50.745Z,4.80
2023-03-05T23:53:37.634Z,4.80
2023-03-05T23:56:24.323Z,4.80
2023-03-05T23:59:10.729Z,4.80
